sensor_id;sensor_type;location;lat;lon;timestamp;P1;durP1;ratioP1;P2;durP2;ratioP2
2404;SDS011;1213;43.206;27.922;2022-07-29T00:01:46;2.30;;;1.93;;
2404;SDS011;1213;43.206;27.922;2022-07-29T00:04:13;2.57;;;2.37;;
2404;SDS011;1213;43.206;27.922;2022-07-29T00:06:38;3.60;;;2.30;;
2404;SDS011;1213;43.206;27.922;2022-07-29T00:09:04;3.77;;;2.47;;
2404;SDS011;1213;43.206;27.922;2022-07-29T00:11:30;2.80;;;2.00;;
2404;SDS011;1213;43.206;27.922;2022-07-29T00:13:55;2.20;;;2.00;;
2404;SDS011;1213;43.206;27.922;2022-07-29T00:16:21;2.77;;;2.23;;
2404;SDS011;1213;43.206;27.922;2022-07-29T00:18:47;2.00;;;1.67;;
2404;SDS011;1213;43.206;27.922;2022-07-29T00:21:12;2.27;;;2.17;;
2404;SDS011;1213;43.206;27.922;2022-07-29T00:23:38;2.50;;;2.30;;
2404;SDS011;1213;43.206;27.922;2022-07-29T00:26:03;1.93;;;1.80;;
2404;SDS011;1213;43.206;27.922;2022-07-29T00:28:29;2.70;;;2.47;;
2404;SDS011;1213;43.206;27.922;2022-07-29T00:30:54;4.23;;;3.53;;
2404;SDS011;1213;43.206;27.922;2022-07-29T00:33:20;5.50;;;2.57;;
2404;SDS011;1213;43.206;27.922;2022-07-29T00:35:47;2.93;;;2.20;;
2404;SDS011;1213;43.206;27.922;2022-07-29T00:38:17;3.73;;;2.60;;
2404;SDS011;1213;43.206;27.922;2022-07-29T00:40:44;2.53;;;2.33;;
2404;SDS011;1213;43.206;27.922;2022-07-29T00:43:10;2.80;;;2.60;;
2404;SDS011;1213;43.206;27.922;2022-07-29T00:45:36;2.37;;;2.17;;
2404;SDS011;1213;43.206;27.922;2022-07-29T00:48:02;4.00;;;3.57;;
2404;SDS011;1213;43.206;27.922;2022-07-29T00:50:29;3.80;;;3.07;;
2404;SDS011;1213;43.206;27.922;2022-07-29T00:52:56;3.10;;;2.80;;
2404;SDS011;1213;43.206;27.922;2022-07-29T00:55:22;4.77;;;3.47;;
2404;SDS011;1213;43.206;27.922;2022-07-29T00:57:47;3.90;;;3.60;;
2404;SDS011;1213;43.206;27.922;2022-07-29T01:00:18;8.93;;;3.90;;
2404;SDS011;1213;43.206;27.922;2022-07-29T01:02:46;4.50;;;2.70;;
2404;SDS011;1213;43.206;27.922;2022-07-29T01:05:13;6.57;;;3.23;;
2404;SDS011;1213;43.206;27.922;2022-07-29T01:07:39;5.40;;;4.33;;
2404;SDS011;1213;43.206;27.922;2022-07-29T01:10:06;6.70;;;3.53;;
2404;SDS011;1213;43.206;27.922;2022-07-29T01:12:34;3.37;;;3.07;;
2404;SDS011;1213;43.206;27.922;2022-07-29T01:15:02;3.50;;;3.20;;
2404;SDS011;1213;43.206;27.922;2022-07-29T01:21:15;4.00;;;3.27;;
2404;SDS011;1213;43.206;27.922;2022-07-29T01:26:39;4.47;;;4.00;;
2404;SDS011;1213;43.206;27.922;2022-07-29T01:29:34;3.70;;;3.40;;
2404;SDS011;1213;43.206;27.922;2022-07-29T01:35:00;4.70;;;4.10;;
2404;SDS011;1213;43.206;27.922;2022-07-29T01:40:03;4.90;;;3.87;;
2404;SDS011;1213;43.206;27.922;2022-07-29T01:42:35;8.43;;;4.07;;
2404;SDS011;1213;43.206;27.922;2022-07-29T01:45:26;4.13;;;3.70;;
2404;SDS011;1213;43.206;27.922;2022-07-29T01:48:22;6.40;;;4.57;;
2404;SDS011;1213;43.206;27.922;2022-07-29T01:51:00;5.63;;;3.87;;
2404;SDS011;1213;43.206;27.922;2022-07-29T01:53:31;4.67;;;3.53;;
2404;SDS011;1213;43.206;27.922;2022-07-29T01:55:59;7.37;;;4.97;;
2404;SDS011;1213;43.206;27.922;2022-07-29T01:58:27;5.23;;;4.30;;
2404;SDS011;1213;43.206;27.922;2022-07-29T02:00:56;11.33;;;5.33;;
2404;SDS011;1213;43.206;27.922;2022-07-29T02:03:23;7.13;;;5.03;;
2404;SDS011;1213;43.206;27.922;2022-07-29T02:05:51;4.30;;;3.70;;
2404;SDS011;1213;43.206;27.922;2022-07-29T02:08:17;16.57;;;5.60;;
2404;SDS011;1213;43.206;27.922;2022-07-29T02:10:45;5.47;;;4.40;;
2404;SDS011;1213;43.206;27.922;2022-07-29T02:13:12;9.07;;;5.97;;
2404;SDS011;1213;43.206;27.922;2022-07-29T02:15:41;8.53;;;5.40;;
2404;SDS011;1213;43.206;27.922;2022-07-29T02:18:09;6.60;;;5.10;;
2404;SDS011;1213;43.206;27.922;2022-07-29T02:20:39;8.63;;;5.73;;
2404;SDS011;1213;43.206;27.922;2022-07-29T02:23:09;9.10;;;5.57;;
2404;SDS011;1213;43.206;27.922;2022-07-29T02:25:36;9.37;;;6.00;;
2404;SDS011;1213;43.206;27.922;2022-07-29T02:28:02;9.80;;;6.67;;
2404;SDS011;1213;43.206;27.922;2022-07-29T02:30:29;7.63;;;6.00;;
2404;SDS011;1213;43.206;27.922;2022-07-29T02:32:56;15.80;;;5.17;;
2404;SDS011;1213;43.206;27.922;2022-07-29T02:35:23;9.53;;;5.80;;
2404;SDS011;1213;43.206;27.922;2022-07-29T02:37:50;6.50;;;5.63;;
2404;SDS011;1213;43.206;27.922;2022-07-29T02:40:36;6.67;;;5.10;;
2404;SDS011;1213;43.206;27.922;2022-07-29T02:43:04;4.93;;;4.43;;
2404;SDS011;1213;43.206;27.922;2022-07-29T02:45:32;12.67;;;5.73;;
2404;SDS011;1213;43.206;27.922;2022-07-29T02:47:58;12.43;;;6.20;;
2404;SDS011;1213;43.206;27.922;2022-07-29T02:50:32;7.73;;;6.23;;
2404;SDS011;1213;43.206;27.922;2022-07-29T02:56:18;15.23;;;5.50;;
2404;SDS011;1213;43.206;27.922;2022-07-29T03:01:02;7.03;;;4.80;;
2404;SDS011;1213;43.206;27.922;2022-07-29T03:03:34;10.83;;;6.10;;
2404;SDS011;1213;43.206;27.922;2022-07-29T03:06:02;14.30;;;5.83;;
2404;SDS011;1213;43.206;27.922;2022-07-29T03:08:29;5.80;;;5.27;;
2404;SDS011;1213;43.206;27.922;2022-07-29T03:10:57;5.80;;;5.20;;
2404;SDS011;1213;43.206;27.922;2022-07-29T03:13:23;6.97;;;5.80;;
2404;SDS011;1213;43.206;27.922;2022-07-29T03:15:49;9.10;;;5.53;;
2404;SDS011;1213;43.206;27.922;2022-07-29T03:18:15;8.60;;;5.10;;
2404;SDS011;1213;43.206;27.922;2022-07-29T03:20:41;5.07;;;4.50;;
2404;SDS011;1213;43.206;27.922;2022-07-29T03:23:10;5.47;;;4.30;;
2404;SDS011;1213;43.206;27.922;2022-07-29T03:25:36;5.87;;;4.20;;
2404;SDS011;1213;43.206;27.922;2022-07-29T03:28:02;9.43;;;5.73;;
2404;SDS011;1213;43.206;27.922;2022-07-29T03:30:28;5.43;;;4.80;;
2404;SDS011;1213;43.206;27.922;2022-07-29T03:32:55;7.30;;;5.20;;
2404;SDS011;1213;43.206;27.922;2022-07-29T03:35:21;5.70;;;5.00;;
2404;SDS011;1213;43.206;27.922;2022-07-29T03:37:47;5.83;;;4.37;;
2404;SDS011;1213;43.206;27.922;2022-07-29T03:40:14;5.80;;;5.10;;
2404;SDS011;1213;43.206;27.922;2022-07-29T03:43:01;6.27;;;4.43;;
2404;SDS011;1213;43.206;27.922;2022-07-29T03:45:28;6.67;;;4.50;;
2404;SDS011;1213;43.206;27.922;2022-07-29T03:48:03;5.90;;;3.97;;
2404;SDS011;1213;43.206;27.922;2022-07-29T03:50:32;8.53;;;5.00;;
2404;SDS011;1213;43.206;27.922;2022-07-29T03:52:58;5.23;;;4.63;;
2404;SDS011;1213;43.206;27.922;2022-07-29T03:55:25;5.07;;;3.63;;
2404;SDS011;1213;43.206;27.922;2022-07-29T03:57:53;8.73;;;3.60;;
2404;SDS011;1213;43.206;27.922;2022-07-29T04:00:22;10.00;;;3.70;;
2404;SDS011;1213;43.206;27.922;2022-07-29T04:02:49;11.70;;;4.00;;
2404;SDS011;1213;43.206;27.922;2022-07-29T04:05:16;5.53;;;4.30;;
2404;SDS011;1213;43.206;27.922;2022-07-29T04:07:46;5.00;;;3.90;;
2404;SDS011;1213;43.206;27.922;2022-07-29T04:10:13;6.73;;;4.63;;
2404;SDS011;1213;43.206;27.922;2022-07-29T04:12:40;10.80;;;4.90;;
2404;SDS011;1213;43.206;27.922;2022-07-29T04:15:06;4.13;;;3.73;;
2404;SDS011;1213;43.206;27.922;2022-07-29T04:17:32;4.37;;;3.83;;
2404;SDS011;1213;43.206;27.922;2022-07-29T04:19:57;6.10;;;4.47;;
2404;SDS011;1213;43.206;27.922;2022-07-29T04:22:23;5.97;;;3.97;;
2404;SDS011;1213;43.206;27.922;2022-07-29T04:24:48;6.33;;;3.83;;
2404;SDS011;1213;43.206;27.922;2022-07-29T04:27:14;4.97;;;3.63;;
2404;SDS011;1213;43.206;27.922;2022-07-29T04:29:39;4.00;;;3.60;;
2404;SDS011;1213;43.206;27.922;2022-07-29T04:32:05;5.47;;;4.03;;
2404;SDS011;1213;43.206;27.922;2022-07-29T04:34:30;7.57;;;5.63;;
2404;SDS011;1213;43.206;27.922;2022-07-29T04:36:56;5.43;;;3.17;;
2404;SDS011;1213;43.206;27.922;2022-07-29T04:39:22;4.97;;;3.90;;
2404;SDS011;1213;43.206;27.922;2022-07-29T04:41:47;3.43;;;3.13;;
2404;SDS011;1213;43.206;27.922;2022-07-29T04:44:13;4.83;;;3.30;;
2404;SDS011;1213;43.206;27.922;2022-07-29T04:46:38;3.43;;;3.13;;
2404;SDS011;1213;43.206;27.922;2022-07-29T04:49:04;3.50;;;2.90;;
2404;SDS011;1213;43.206;27.922;2022-07-29T04:51:29;3.40;;;3.10;;
2404;SDS011;1213;43.206;27.922;2022-07-29T04:53:55;5.70;;;3.90;;
2404;SDS011;1213;43.206;27.922;2022-07-29T04:56:20;5.30;;;4.80;;
2404;SDS011;1213;43.206;27.922;2022-07-29T04:58:46;5.63;;;4.93;;
2404;SDS011;1213;43.206;27.922;2022-07-29T05:01:11;6.43;;;4.83;;
2404;SDS011;1213;43.206;27.922;2022-07-29T05:03:36;5.53;;;4.40;;
2404;SDS011;1213;43.206;27.922;2022-07-29T05:06:02;4.97;;;4.40;;
2404;SDS011;1213;43.206;27.922;2022-07-29T05:08:28;4.57;;;4.17;;
2404;SDS011;1213;43.206;27.922;2022-07-29T05:10:53;5.43;;;4.17;;
2404;SDS011;1213;43.206;27.922;2022-07-29T05:13:19;4.30;;;3.67;;
2404;SDS011;1213;43.206;27.922;2022-07-29T05:15:44;3.30;;;3.00;;
2404;SDS011;1213;43.206;27.922;2022-07-29T05:18:09;4.77;;;3.17;;
2404;SDS011;1213;43.206;27.922;2022-07-29T05:20:35;3.80;;;2.97;;
2404;SDS011;1213;43.206;27.922;2022-07-29T05:23:01;3.07;;;2.83;;
2404;SDS011;1213;43.206;27.922;2022-07-29T05:25:27;4.67;;;3.40;;
2404;SDS011;1213;43.206;27.922;2022-07-29T05:27:54;4.63;;;3.40;;
2404;SDS011;1213;43.206;27.922;2022-07-29T05:30:20;2.67;;;2.47;;
2404;SDS011;1213;43.206;27.922;2022-07-29T05:32:46;4.00;;;3.43;;
2404;SDS011;1213;43.206;27.922;2022-07-29T05:35:12;3.40;;;3.10;;
2404;SDS011;1213;43.206;27.922;2022-07-29T05:37:38;5.33;;;2.60;;
2404;SDS011;1213;43.206;27.922;2022-07-29T05:40:04;4.63;;;3.50;;
2404;SDS011;1213;43.206;27.922;2022-07-29T05:42:31;2.83;;;2.50;;
2404;SDS011;1213;43.206;27.922;2022-07-29T05:44:56;3.30;;;2.60;;
2404;SDS011;1213;43.206;27.922;2022-07-29T05:47:22;5.23;;;2.50;;
2404;SDS011;1213;43.206;27.922;2022-07-29T05:49:48;6.50;;;3.40;;
2404;SDS011;1213;43.206;27.922;2022-07-29T05:52:14;3.27;;;2.63;;
2404;SDS011;1213;43.206;27.922;2022-07-29T05:54:39;2.70;;;2.50;;
2404;SDS011;1213;43.206;27.922;2022-07-29T05:57:05;2.77;;;2.40;;
2404;SDS011;1213;43.206;27.922;2022-07-29T05:59:34;2.77;;;2.57;;
2404;SDS011;1213;43.206;27.922;2022-07-29T06:02:01;3.57;;;2.67;;
2404;SDS011;1213;43.206;27.922;2022-07-29T06:04:26;3.17;;;2.80;;
2404;SDS011;1213;43.206;27.922;2022-07-29T06:06:52;2.63;;;2.43;;
2404;SDS011;1213;43.206;27.922;2022-07-29T06:09:17;3.40;;;2.33;;
2404;SDS011;1213;43.206;27.922;2022-07-29T06:11:43;2.23;;;2.03;;
2404;SDS011;1213;43.206;27.922;2022-07-29T06:14:08;2.57;;;2.03;;
2404;SDS011;1213;43.206;27.922;2022-07-29T06:16:34;2.37;;;1.93;;
2404;SDS011;1213;43.206;27.922;2022-07-29T06:19:00;2.70;;;2.40;;
2404;SDS011;1213;43.206;27.922;2022-07-29T06:21:25;2.70;;;2.50;;
2404;SDS011;1213;43.206;27.922;2022-07-29T06:23:51;4.03;;;2.57;;
2404;SDS011;1213;43.206;27.922;2022-07-29T06:26:16;3.07;;;2.57;;
2404;SDS011;1213;43.206;27.922;2022-07-29T06:28:41;2.50;;;2.30;;
2404;SDS011;1213;43.206;27.922;2022-07-29T06:31:07;4.37;;;2.03;;
2404;SDS011;1213;43.206;27.922;2022-07-29T06:33:33;2.97;;;2.20;;
2404;SDS011;1213;43.206;27.922;2022-07-29T06:35:58;4.60;;;2.50;;
2404;SDS011;1213;43.206;27.922;2022-07-29T06:38:24;2.47;;;2.10;;
2404;SDS011;1213;43.206;27.922;2022-07-29T06:40:50;3.40;;;2.97;;
2404;SDS011;1213;43.206;27.922;2022-07-29T06:46:06;4.33;;;2.60;;
2404;SDS011;1213;43.206;27.922;2022-07-29T06:48:34;2.03;;;1.93;;
2404;SDS011;1213;43.206;27.922;2022-07-29T06:51:01;2.60;;;2.27;;
2404;SDS011;1213;43.206;27.922;2022-07-29T06:53:27;5.40;;;2.73;;
2404;SDS011;1213;43.206;27.922;2022-07-29T06:55:53;10.17;;;2.70;;
2404;SDS011;1213;43.206;27.922;2022-07-29T06:58:18;4.00;;;2.57;;
2404;SDS011;1213;43.206;27.922;2022-07-29T07:00:45;4.53;;;3.43;;
2404;SDS011;1213;43.206;27.922;2022-07-29T07:03:11;5.00;;;3.30;;
2404;SDS011;1213;43.206;27.922;2022-07-29T07:05:37;2.77;;;2.50;;
2404;SDS011;1213;43.206;27.922;2022-07-29T07:08:03;3.70;;;3.10;;
2404;SDS011;1213;43.206;27.922;2022-07-29T07:10:29;2.80;;;2.60;;
2404;SDS011;1213;43.206;27.922;2022-07-29T07:12:55;4.70;;;2.63;;
2404;SDS011;1213;43.206;27.922;2022-07-29T07:15:20;3.17;;;2.33;;
2404;SDS011;1213;43.206;27.922;2022-07-29T07:17:49;4.07;;;2.80;;
2404;SDS011;1213;43.206;27.922;2022-07-29T07:20:16;2.10;;;1.90;;
2404;SDS011;1213;43.206;27.922;2022-07-29T07:22:42;2.20;;;2.00;;
2404;SDS011;1213;43.206;27.922;2022-07-29T07:25:08;4.43;;;3.20;;
2404;SDS011;1213;43.206;27.922;2022-07-29T07:27:34;5.10;;;2.40;;
2404;SDS011;1213;43.206;27.922;2022-07-29T07:30:01;2.10;;;1.90;;
2404;SDS011;1213;43.206;27.922;2022-07-29T07:32:27;2.43;;;2.10;;
2404;SDS011;1213;43.206;27.922;2022-07-29T07:34:52;1.97;;;1.87;;
2404;SDS011;1213;43.206;27.922;2022-07-29T07:37:18;2.57;;;2.07;;
2404;SDS011;1213;43.206;27.922;2022-07-29T07:39:45;2.43;;;2.23;;
2404;SDS011;1213;43.206;27.922;2022-07-29T07:42:11;3.53;;;2.93;;
2404;SDS011;1213;43.206;27.922;2022-07-29T07:44:38;2.17;;;1.97;;
2404;SDS011;1213;43.206;27.922;2022-07-29T07:47:04;2.50;;;2.30;;
2404;SDS011;1213;43.206;27.922;2022-07-29T07:49:30;2.80;;;2.20;;
2404;SDS011;1213;43.206;27.922;2022-07-29T07:51:55;3.53;;;2.27;;
2404;SDS011;1213;43.206;27.922;2022-07-29T07:54:21;1.87;;;1.67;;
2404;SDS011;1213;43.206;27.922;2022-07-29T07:56:47;2.80;;;2.10;;
2404;SDS011;1213;43.206;27.922;2022-07-29T07:59:14;2.20;;;2.00;;
2404;SDS011;1213;43.206;27.922;2022-07-29T08:01:41;2.70;;;2.30;;
2404;SDS011;1213;43.206;27.922;2022-07-29T08:04:06;2.20;;;2.00;;
2404;SDS011;1213;43.206;27.922;2022-07-29T08:06:32;2.00;;;1.80;;
2404;SDS011;1213;43.206;27.922;2022-07-29T08:09:00;1.70;;;1.60;;
2404;SDS011;1213;43.206;27.922;2022-07-29T08:11:25;1.90;;;1.80;;
2404;SDS011;1213;43.206;27.922;2022-07-29T08:13:51;1.60;;;1.50;;
2404;SDS011;1213;43.206;27.922;2022-07-29T08:16:17;1.70;;;1.57;;
2404;SDS011;1213;43.206;27.922;2022-07-29T08:18:43;2.73;;;2.10;;
2404;SDS011;1213;43.206;27.922;2022-07-29T08:21:09;1.80;;;1.70;;
2404;SDS011;1213;43.206;27.922;2022-07-29T08:23:35;1.93;;;1.67;;
2404;SDS011;1213;43.206;27.922;2022-07-29T08:26:05;1.70;;;1.60;;
2404;SDS011;1213;43.206;27.922;2022-07-29T08:28:35;1.60;;;1.50;;
2404;SDS011;1213;43.206;27.922;2022-07-29T08:31:11;2.30;;;2.10;;
2404;SDS011;1213;43.206;27.922;2022-07-29T08:33:37;3.60;;;1.87;;
2404;SDS011;1213;43.206;27.922;2022-07-29T08:36:03;2.20;;;2.00;;
2404;SDS011;1213;43.206;27.922;2022-07-29T08:38:29;1.80;;;1.70;;
2404;SDS011;1213;43.206;27.922;2022-07-29T08:40:55;2.47;;;2.27;;
2404;SDS011;1213;43.206;27.922;2022-07-29T08:43:20;2.03;;;1.93;;
2404;SDS011;1213;43.206;27.922;2022-07-29T08:45:47;2.63;;;2.43;;
2404;SDS011;1213;43.206;27.922;2022-07-29T08:48:16;2.00;;;1.70;;
2404;SDS011;1213;43.206;27.922;2022-07-29T08:50:44;2.27;;;2.07;;
2404;SDS011;1213;43.206;27.922;2022-07-29T08:53:11;2.23;;;2.03;;
2404;SDS011;1213;43.206;27.922;2022-07-29T08:55:39;2.63;;;2.33;;
2404;SDS011;1213;43.206;27.922;2022-07-29T08:58:07;1.93;;;1.73;;
2404;SDS011;1213;43.206;27.922;2022-07-29T09:00:35;1.97;;;1.87;;
2404;SDS011;1213;43.206;27.922;2022-07-29T09:03:02;4.40;;;1.80;;
2404;SDS011;1213;43.206;27.922;2022-07-29T09:05:29;1.97;;;1.87;;
2404;SDS011;1213;43.206;27.922;2022-07-29T09:07:57;2.37;;;2.07;;
2404;SDS011;1213;43.206;27.922;2022-07-29T09:10:22;2.10;;;1.90;;
2404;SDS011;1213;43.206;27.922;2022-07-29T09:12:48;2.20;;;2.00;;
2404;SDS011;1213;43.206;27.922;2022-07-29T09:15:14;2.37;;;1.90;;
2404;SDS011;1213;43.206;27.922;2022-07-29T09:17:46;3.33;;;2.27;;
2404;SDS011;1213;43.206;27.922;2022-07-29T09:20:14;2.17;;;2.03;;
2404;SDS011;1213;43.206;27.922;2022-07-29T09:22:41;2.23;;;2.03;;
2404;SDS011;1213;43.206;27.922;2022-07-29T09:25:07;2.30;;;2.13;;
2404;SDS011;1213;43.206;27.922;2022-07-29T09:27:33;2.20;;;1.93;;
2404;SDS011;1213;43.206;27.922;2022-07-29T09:30:00;2.00;;;1.90;;
2404;SDS011;1213;43.206;27.922;2022-07-29T09:32:32;2.67;;;2.47;;
2404;SDS011;1213;43.206;27.922;2022-07-29T09:35:16;2.13;;;1.93;;
2404;SDS011;1213;43.206;27.922;2022-07-29T09:37:46;2.83;;;2.30;;
2404;SDS011;1213;43.206;27.922;2022-07-29T09:40:16;1.90;;;1.60;;
2404;SDS011;1213;43.206;27.922;2022-07-29T09:42:44;2.13;;;1.70;;
2404;SDS011;1213;43.206;27.922;2022-07-29T09:45:10;3.10;;;2.70;;
2404;SDS011;1213;43.206;27.922;2022-07-29T09:47:43;4.20;;;2.30;;
2404;SDS011;1213;43.206;27.922;2022-07-29T09:50:10;3.63;;;2.10;;
2404;SDS011;1213;43.206;27.922;2022-07-29T09:52:49;2.20;;;2.10;;
2404;SDS011;1213;43.206;27.922;2022-07-29T09:55:16;1.70;;;1.60;;
2404;SDS011;1213;43.206;27.922;2022-07-29T09:57:42;2.17;;;1.97;;
2404;SDS011;1213;43.206;27.922;2022-07-29T10:00:15;2.17;;;1.97;;
2404;SDS011;1213;43.206;27.922;2022-07-29T10:02:43;3.10;;;2.37;;
2404;SDS011;1213;43.206;27.922;2022-07-29T10:05:21;2.13;;;1.90;;
2404;SDS011;1213;43.206;27.922;2022-07-29T10:10:26;2.23;;;2.03;;
2404;SDS011;1213;43.206;27.922;2022-07-29T10:12:54;2.00;;;1.90;;
2404;SDS011;1213;43.206;27.922;2022-07-29T10:15:24;2.43;;;2.23;;
2404;SDS011;1213;43.206;27.922;2022-07-29T10:17:51;2.03;;;1.83;;
2404;SDS011;1213;43.206;27.922;2022-07-29T10:20:19;3.30;;;2.67;;
2404;SDS011;1213;43.206;27.922;2022-07-29T10:22:46;2.50;;;2.30;;
2404;SDS011;1213;43.206;27.922;2022-07-29T10:25:13;2.20;;;2.00;;
2404;SDS011;1213;43.206;27.922;2022-07-29T10:27:39;2.40;;;2.20;;
2404;SDS011;1213;43.206;27.922;2022-07-29T10:30:05;2.00;;;1.90;;
2404;SDS011;1213;43.206;27.922;2022-07-29T10:35:44;2.60;;;2.20;;
2404;SDS011;1213;43.206;27.922;2022-07-29T10:43:57;2.40;;;2.20;;
2404;SDS011;1213;43.206;27.922;2022-07-29T10:46:43;2.33;;;2.00;;
2404;SDS011;1213;43.206;27.922;2022-07-29T10:49:13;3.30;;;3.00;;
2404;SDS011;1213;43.206;27.922;2022-07-29T10:59:50;3.70;;;3.40;;
2404;SDS011;1213;43.206;27.922;2022-07-29T11:07:28;2.67;;;2.40;;
2404;SDS011;1213;43.206;27.922;2022-07-29T11:15:04;1.93;;;1.77;;
2404;SDS011;1213;43.206;27.922;2022-07-29T11:23:25;2.67;;;2.40;;
2404;SDS011;1213;43.206;27.922;2022-07-29T11:28:39;2.20;;;2.00;;
2404;SDS011;1213;43.206;27.922;2022-07-29T11:31:13;2.00;;;1.80;;
2404;SDS011;1213;43.206;27.922;2022-07-29T11:33:44;2.80;;;2.43;;
2404;SDS011;1213;43.206;27.922;2022-07-29T11:36:11;2.27;;;1.90;;
2404;SDS011;1213;43.206;27.922;2022-07-29T11:38:40;2.93;;;2.60;;
2404;SDS011;1213;43.206;27.922;2022-07-29T11:43:56;2.03;;;1.80;;
2404;SDS011;1213;43.206;27.922;2022-07-29T11:46:43;2.60;;;2.40;;
2404;SDS011;1213;43.206;27.922;2022-07-29T11:49:21;3.80;;;3.10;;
2404;SDS011;1213;43.206;27.922;2022-07-29T11:51:55;2.67;;;2.47;;
2404;SDS011;1213;43.206;27.922;2022-07-29T11:54:24;2.87;;;2.40;;
2404;SDS011;1213;43.206;27.922;2022-07-29T11:56:57;2.60;;;2.40;;
2404;SDS011;1213;43.206;27.922;2022-07-29T11:59:24;3.13;;;2.20;;
2404;SDS011;1213;43.206;27.922;2022-07-29T12:01:52;6.63;;;4.50;;
2404;SDS011;1213;43.206;27.922;2022-07-29T12:04:19;2.17;;;1.97;;
2404;SDS011;1213;43.206;27.922;2022-07-29T12:06:53;2.67;;;2.07;;
2404;SDS011;1213;43.206;27.922;2022-07-29T12:09:20;1.90;;;1.57;;
2404;SDS011;1213;43.206;27.922;2022-07-29T12:11:46;2.80;;;2.20;;
2404;SDS011;1213;43.206;27.922;2022-07-29T12:14:27;2.23;;;2.03;;
2404;SDS011;1213;43.206;27.922;2022-07-29T12:16:57;3.23;;;2.30;;
2404;SDS011;1213;43.206;27.922;2022-07-29T12:19:24;2.70;;;2.43;;
2404;SDS011;1213;43.206;27.922;2022-07-29T12:21:51;2.50;;;2.20;;
2404;SDS011;1213;43.206;27.922;2022-07-29T12:24:18;2.53;;;2.33;;
2404;SDS011;1213;43.206;27.922;2022-07-29T12:26:57;2.83;;;2.37;;
2404;SDS011;1213;43.206;27.922;2022-07-29T12:29:24;3.37;;;2.40;;
2404;SDS011;1213;43.206;27.922;2022-07-29T12:31:54;2.30;;;2.10;;
2404;SDS011;1213;43.206;27.922;2022-07-29T12:34:23;2.70;;;2.50;;
2404;SDS011;1213;43.206;27.922;2022-07-29T12:36:51;3.63;;;3.20;;
2404;SDS011;1213;43.206;27.922;2022-07-29T12:39:17;2.83;;;2.20;;
2404;SDS011;1213;43.206;27.922;2022-07-29T12:41:43;2.23;;;2.03;;
2404;SDS011;1213;43.206;27.922;2022-07-29T12:44:09;1.93;;;1.80;;
2404;SDS011;1213;43.206;27.922;2022-07-29T12:46:35;3.73;;;2.60;;
2404;SDS011;1213;43.206;27.922;2022-07-29T12:49:00;3.00;;;2.70;;
2404;SDS011;1213;43.206;27.922;2022-07-29T12:51:39;2.37;;;2.13;;
2404;SDS011;1213;43.206;27.922;2022-07-29T12:56:41;3.30;;;2.87;;
2404;SDS011;1213;43.206;27.922;2022-07-29T12:59:17;3.13;;;2.83;;
2404;SDS011;1213;43.206;27.922;2022-07-29T13:01:48;4.67;;;2.97;;
2404;SDS011;1213;43.206;27.922;2022-07-29T13:04:31;3.67;;;2.37;;
2404;SDS011;1213;43.206;27.922;2022-07-29T13:07:02;2.87;;;2.10;;
2404;SDS011;1213;43.206;27.922;2022-07-29T13:09:40;2.50;;;2.30;;
2404;SDS011;1213;43.206;27.922;2022-07-29T13:12:08;2.47;;;2.27;;
2404;SDS011;1213;43.206;27.922;2022-07-29T13:14:35;2.30;;;2.10;;
2404;SDS011;1213;43.206;27.922;2022-07-29T13:17:36;4.03;;;2.30;;
2404;SDS011;1213;43.206;27.922;2022-07-29T13:20:05;1.87;;;1.63;;
2404;SDS011;1213;43.206;27.922;2022-07-29T13:22:33;3.30;;;2.33;;
2404;SDS011;1213;43.206;27.922;2022-07-29T13:24:59;2.67;;;2.47;;
2404;SDS011;1213;43.206;27.922;2022-07-29T13:27:32;2.70;;;2.50;;
2404;SDS011;1213;43.206;27.922;2022-07-29T13:29:59;2.50;;;2.07;;
2404;SDS011;1213;43.206;27.922;2022-07-29T13:32:28;2.93;;;2.10;;
2404;SDS011;1213;43.206;27.922;2022-07-29T13:34:58;2.67;;;2.47;;
2404;SDS011;1213;43.206;27.922;2022-07-29T13:37:25;2.33;;;2.13;;
2404;SDS011;1213;43.206;27.922;2022-07-29T13:39:51;2.90;;;2.70;;
2404;SDS011;1213;43.206;27.922;2022-07-29T13:42:17;2.57;;;2.37;;
2404;SDS011;1213;43.206;27.922;2022-07-29T13:44:43;2.00;;;1.87;;
2404;SDS011;1213;43.206;27.922;2022-07-29T13:47:09;3.63;;;2.67;;
2404;SDS011;1213;43.206;27.922;2022-07-29T13:49:34;3.33;;;1.83;;
2404;SDS011;1213;43.206;27.922;2022-07-29T13:52:00;2.67;;;2.03;;
2404;SDS011;1213;43.206;27.922;2022-07-29T13:54:26;3.03;;;2.73;;
2404;SDS011;1213;43.206;27.922;2022-07-29T13:56:51;2.70;;;2.50;;
2404;SDS011;1213;43.206;27.922;2022-07-29T13:59:17;2.30;;;2.10;;
2404;SDS011;1213;43.206;27.922;2022-07-29T14:01:42;2.57;;;2.37;;
2404;SDS011;1213;43.206;27.922;2022-07-29T14:04:09;2.97;;;2.30;;
2404;SDS011;1213;43.206;27.922;2022-07-29T14:06:35;3.00;;;2.40;;
2404;SDS011;1213;43.206;27.922;2022-07-29T14:09:02;2.60;;;2.40;;
2404;SDS011;1213;43.206;27.922;2022-07-29T14:11:31;2.60;;;2.40;;
2404;SDS011;1213;43.206;27.922;2022-07-29T14:13:57;6.23;;;2.33;;
2404;SDS011;1213;43.206;27.922;2022-07-29T14:16:22;3.43;;;2.50;;
2404;SDS011;1213;43.206;27.922;2022-07-29T14:18:48;3.40;;;2.80;;
2404;SDS011;1213;43.206;27.922;2022-07-29T14:21:13;3.00;;;2.77;;
2404;SDS011;1213;43.206;27.922;2022-07-29T14:23:39;2.83;;;2.00;;
2404;SDS011;1213;43.206;27.922;2022-07-29T14:26:05;2.80;;;2.47;;
2404;SDS011;1213;43.206;27.922;2022-07-29T14:28:31;2.53;;;2.20;;
2404;SDS011;1213;43.206;27.922;2022-07-29T14:30:57;2.57;;;2.37;;
2404;SDS011;1213;43.206;27.922;2022-07-29T14:33:22;4.00;;;2.80;;
2404;SDS011;1213;43.206;27.922;2022-07-29T14:35:48;2.90;;;2.50;;
2404;SDS011;1213;43.206;27.922;2022-07-29T14:38:13;3.00;;;2.70;;
2404;SDS011;1213;43.206;27.922;2022-07-29T14:40:39;3.37;;;3.07;;
2404;SDS011;1213;43.206;27.922;2022-07-29T14:43:04;3.80;;;3.50;;
2404;SDS011;1213;43.206;27.922;2022-07-29T14:45:30;2.50;;;2.17;;
2404;SDS011;1213;43.206;27.922;2022-07-29T14:47:56;2.97;;;2.67;;
2404;SDS011;1213;43.206;27.922;2022-07-29T14:50:21;3.20;;;2.83;;
2404;SDS011;1213;43.206;27.922;2022-07-29T14:52:47;2.53;;;2.33;;
2404;SDS011;1213;43.206;27.922;2022-07-29T14:55:13;3.10;;;2.67;;
2404;SDS011;1213;43.206;27.922;2022-07-29T14:57:38;3.30;;;2.60;;
2404;SDS011;1213;43.206;27.922;2022-07-29T15:00:04;5.87;;;2.30;;
2404;SDS011;1213;43.206;27.922;2022-07-29T15:02:32;2.87;;;2.63;;
2404;SDS011;1213;43.206;27.922;2022-07-29T15:04:58;2.90;;;2.70;;
2404;SDS011;1213;43.206;27.922;2022-07-29T15:07:23;2.87;;;2.57;;
2404;SDS011;1213;43.206;27.922;2022-07-29T15:09:51;6.73;;;3.00;;
2404;SDS011;1213;43.206;27.922;2022-07-29T15:12:17;5.80;;;2.50;;
2404;SDS011;1213;43.206;27.922;2022-07-29T15:14:42;3.20;;;2.90;;
2404;SDS011;1213;43.206;27.922;2022-07-29T15:17:08;3.20;;;2.90;;
2404;SDS011;1213;43.206;27.922;2022-07-29T15:19:33;3.47;;;3.00;;
2404;SDS011;1213;43.206;27.922;2022-07-29T15:21:59;2.70;;;2.50;;
2404;SDS011;1213;43.206;27.922;2022-07-29T15:24:24;3.07;;;2.43;;
2404;SDS011;1213;43.206;27.922;2022-07-29T15:26:50;2.90;;;2.60;;
2404;SDS011;1213;43.206;27.922;2022-07-29T15:29:15;3.43;;;2.77;;
2404;SDS011;1213;43.206;27.922;2022-07-29T15:31:41;3.97;;;3.33;;
2404;SDS011;1213;43.206;27.922;2022-07-29T15:34:07;3.30;;;2.80;;
2404;SDS011;1213;43.206;27.922;2022-07-29T15:36:33;4.20;;;2.40;;
2404;SDS011;1213;43.206;27.922;2022-07-29T15:38:59;3.20;;;2.77;;
2404;SDS011;1213;43.206;27.922;2022-07-29T15:41:24;3.07;;;2.77;;
2404;SDS011;1213;43.206;27.922;2022-07-29T15:43:50;3.37;;;3.07;;
2404;SDS011;1213;43.206;27.922;2022-07-29T15:46:16;3.87;;;3.57;;
2404;SDS011;1213;43.206;27.922;2022-07-29T15:49:01;3.87;;;2.93;;
2404;SDS011;1213;43.206;27.922;2022-07-29T15:51:27;2.83;;;2.63;;
2404;SDS011;1213;43.206;27.922;2022-07-29T15:53:53;4.73;;;3.30;;
2404;SDS011;1213;43.206;27.922;2022-07-29T15:56:18;3.63;;;2.97;;
2404;SDS011;1213;43.206;27.922;2022-07-29T15:58:44;3.70;;;3.33;;
2404;SDS011;1213;43.206;27.922;2022-07-29T16:01:10;3.13;;;2.90;;
2404;SDS011;1213;43.206;27.922;2022-07-29T16:03:35;3.43;;;2.93;;
2404;SDS011;1213;43.206;27.922;2022-07-29T16:06:01;3.40;;;3.10;;
2404;SDS011;1213;43.206;27.922;2022-07-29T16:08:27;3.00;;;2.60;;